Time;durP1;ratioP1;P1;durP2;ratioP2;P2;SDS_P1;SDS_P2;PMS_P1;PMS_P2;Temp;Humidity;BMP_temperature;BMP_pressure;BME280_temperature;BME280_humidity;BME280_pressure;Samples;Min_cycle;Max_cycle;Signal;HPM_P1;HPM_P2
2021/10/03 06:09:22;;;;;;;;;3.00;3.00;;;;;;;;4771537;27;4359077;-79
2021/10/03 06:11:47;;;;;;;;;5.25;1.50;;;;;;;;4858752;27;7508831;-79
2021/10/03 06:15:00;;;;;;;;;;;;;;;;;;1677351;27;145102425;-79
2021/10/03 06:17:25;;;;;;;;;1.25;1.25;;;;;;;;5121151;27;13379;-79
2021/10/03 06:19:50;;;;;;;;;0.00;0.00;;;;;;;;5127504;27;9758;-79
2021/10/03 06:22:20;;;;;;;;;0.00;0.00;;;;;;;;5129956;27;13753;-79
2021/10/03 06:24:46;;;;;;;;;0.00;0.00;;;;;;;;5126742;27;16363;-80
2021/10/03 06:27:11;;;;;;;;;0.67;0.00;;;;;;;;5128809;27;17873;-79
2021/10/03 06:29:36;;;;;;;;;1.00;0.00;;;;;;;;5132535;27;10145;-79
2021/10/03 06:32:01;;;;;;;;;0.00;0.00;;;;;;;;5131491;27;10075;-79
2021/10/03 06:34:26;;;;;;;;;0.25;0.00;;;;;;;;5124620;27;11412;-78
2021/10/03 07:37:18;;;;;;;;;0.00;0.00;;;;;;;;4764992;27;8406749;-78
2021/10/03 07:57:04;;;;;;;;;1.50;0.25;;;;;;;;5081628;27;410339;-76
2021/10/03 07:59:29;;;;;;;;;1.00;0.00;;;;;;;;5122377;27;29012;-77
2021/10/03 08:01:54;;;;;;;;;1.00;1.00;;;;;;;;5138407;27;29551;-76
2021/10/03 08:04:19;;;;;;;;;1.00;1.00;;;;;;;;5151386;27;10122;-76
2021/10/03 08:06:45;;;;;;;;;2.00;2.00;;;;;;;;5144056;27;10501;-77
2021/10/03 08:09:10;;;;;;;;;1.75;1.00;;;;;;;;5147309;27;10179;-77
2021/10/03 08:11:35;;;;;;;;;2.00;2.00;;;;;;;;5141984;27;9144;-77
2021/10/03 08:14:01;;;;;;;;;3.00;3.00;;;;;;;;5146668;27;8835;-77
2021/10/03 08:16:26;;;;;;;;;5.00;5.00;;;;;;;;5149743;27;9506;-76
2021/10/03 08:18:51;;;;;;;;;5.00;4.00;;;;;;;;5147078;27;17107;-77
2021/10/03 08:23:46;;;;;;;;;2.00;2.00;;;;;;;;5401894;22;12656;-77
2021/10/03 08:26:12;;;;;;;;;3.25;3.00;;;;;;;;5105364;27;9610;-77
2021/10/03 08:53:43;;;;;;;;;0.00;0.00;;;;;;;;177810;27;130566535;-76
2021/10/03 09:14:12;;;;;;;;;3.00;3.00;;;;;;;;177778;27;116931618;-77
2021/10/03 09:20:30;;;;;;;;;1.50;1.50;;;;;;;;3;128889668;130583994;-76
2021/10/03 09:27:08;;;;;;;;;9.00;0.00;;;;;;;;3;126062391;139576236;-76
2021/10/03 09:29:36;;;;;;;;;0.33;0.33;;;;;;;;258000;28;117056445;-77
2021/10/03 09:34:35;;;;;;;;;;;;;;;;;;174194;28;125619516;-76
2021/10/03 09:37:19;;;;;;;;;1.75;1.75;;;;;;;;1001392;28;102278335;-77
2021/10/03 09:39:44;;;;;;;;;2.75;2.00;;;;;;;;3637765;28;26479674;-76
2021/10/03 09:43:13;;;;;;;;;0.00;0.00;;;;;;;;458058;28;77717555;-76
2021/10/03 09:45:38;;;;;;;;;1.00;1.00;;;;;;;;447811;28;104097312;-76
2021/10/03 09:48:08;;;;;;;;;2.00;2.00;;;;;;;;4172034;28;24045257;-76
2021/10/03 09:50:34;;;;;;;;;1.75;1.75;;;;;;;;3231105;28;17657858;-76
2021/10/03 09:53:00;;;;;;;;;1.00;1.00;;;;;;;;4160912;28;4748923;-76
2021/10/03 09:55:25;;;;;;;;;0.00;0.00;;;;;;;;4243559;28;10994361;-76
2021/10/03 09:57:53;;;;;;;;;1.00;1.00;;;;;;;;3766184;28;12207646;-77
2021/10/03 10:00:18;;;;;;;;;1.00;1.00;;;;;;;;5061538;28;9036;-77
2021/10/03 10:02:58;;;;;;;;;0.00;0.00;;;;;;;;3873575;28;28250531;-77
2021/10/03 10:07:20;;;;;;;;;;;;;;;;;;726567;27;127127559;-77
2021/10/03 10:12:48;;;;;;;;;0.00;0.00;;;;;;;;3;98168508;117710935;-76
2021/10/03 10:20:17;;;;;;;;;0.00;0.00;;;;;;;;2084473;27;23055234;-76
2021/10/03 10:22:52;;;;;;;;;0.00;0.00;;;;;;;;2068071;27;23267804;-76
2021/10/03 10:27:55;;;;;;;;;;;;;;;;;;2144796;27;126960628;-76
2021/10/03 10:30:21;;;;;;;;;0.00;0.00;;;;;;;;2848317;27;22906613;-76
2021/10/03 10:32:55;;;;;;;;;0.00;0.00;;;;;;;;5086317;27;29018;-76
2021/10/03 10:35:22;;;;;;;;;0.00;0.00;;;;;;;;5098904;27;27898;-76
2021/10/03 10:37:50;;;;;;;;;0.00;0.00;;;;;;;;5089684;27;28617;-77
2021/10/03 10:40:24;;;;;;;;;0.00;0.00;;;;;;;;5095251;27;41884;-76
2021/10/03 10:42:51;;;;;;;;;0.00;0.00;;;;;;;;5090314;27;171930;-76
2021/10/03 10:45:35;;;;;;;;;0.00;0.00;;;;;;;;5024829;27;896595;-76
2021/10/03 10:48:06;;;;;;;;;1.00;1.00;;;;;;;;5086829;27;153225;-76
2021/10/03 10:50:32;;;;;;;;;0.00;0.00;;;;;;;;5095483;27;33000;-76
2021/10/03 10:53:16;;;;;;;;;0.00;0.00;;;;;;;;5103436;27;45564;-76
2021/10/03 10:55:42;;;;;;;;;0.00;0.00;;;;;;;;5099903;27;44878;-76
2021/10/03 10:58:08;;;;;;;;;0.00;0.00;;;;;;;;5097070;27;45363;-76
2021/10/03 11:00:45;;;;;;;;;0.00;0.00;;;;;;;;5109409;27;45156;-76
2021/10/03 11:03:11;;;;;;;;;1.00;0.00;;;;;;;;5094257;27;123016;-76
2021/10/03 11:05:40;;;;;;;;;1.00;0.00;;;;;;;;5093305;27;51237;-76
2021/10/03 11:08:11;;;;;;;;;0.00;0.00;;;;;;;;5080859;22;100703;-92
2021/10/03 11:10:55;;;;;;;;;0.75;0.75;;;;;;;;5116003;22;45577;-76
2021/10/03 11:13:38;;;;;;;;;0.25;0.25;;;;;;;;5119315;27;45120;-76
2021/10/03 11:16:18;;;;;;;;;2.25;2.25;;;;;;;;5017649;27;2354957;-76
2021/10/03 11:18:51;;;;;;;;;0.00;0.00;;;;;;;;5122688;27;11995;-76
2021/10/03 11:21:20;;;;;;;;;0.00;0.00;;;;;;;;5124241;27;14276;-76
2021/10/03 11:23:46;;;;;;;;;0.00;0.00;;;;;;;;5124574;27;16494;-76
2021/10/03 11:26:11;;;;;;;;;0.00;0.00;;;;;;;;5125189;27;16845;-76
2021/10/03 11:28:55;;;;;;;;;0.00;0.00;;;;;;;;5114104;27;8812;-76
2021/10/03 11:31:41;;;;;;;;;0.00;0.00;;;;;;;;5107792;27;9939;-76
2021/10/03 11:34:06;;;;;;;;;0.00;0.00;;;;;;;;5111584;27;9989;-76
2021/10/03 11:36:32;;;;;;;;;0.00;0.00;;;;;;;;5112240;27;9608;-76
2021/10/03 11:38:59;;;;;;;;;0.00;0.00;;;;;;;;5108694;27;13824;-76
2021/10/03 11:41:25;;;;;;;;;0.00;0.00;;;;;;;;5110122;27;12732;-76
2021/10/03 11:43:50;;;;;;;;;0.00;0.00;;;;;;;;5110922;27;8831;-76
2021/10/03 11:46:15;;;;;;;;;0.00;0.00;;;;;;;;5110024;27;14263;-76
2021/10/03 11:48:40;;;;;;;;;0.00;0.00;;;;;;;;5115667;27;12808;-76
2021/10/03 11:51:05;;;;;;;;;0.33;0.00;;;;;;;;5114124;27;8893;-75
2021/10/03 11:53:32;;;;;;;;;1.25;0.75;;;;;;;;5112900;27;11398;-76
2021/10/03 11:56:08;;;;;;;;;0.00;0.00;;;;;;;;5115570;27;8813;-76
2021/10/03 11:58:37;;;;;;;;;0.00;0.00;;;;;;;;5110710;27;9194;-76
2021/10/03 12:01:05;;;;;;;;;0.25;0.00;;;;;;;;5113589;27;13423;-76
2021/10/03 12:03:33;;;;;;;;;0.00;0.00;;;;;;;;5113142;27;9055;-76
2021/10/03 12:05:58;;;;;;;;;0.25;0.25;;;;;;;;5109562;27;16553;-75
2021/10/03 12:08:25;;;;;;;;;0.75;0.75;;;;;;;;5112414;27;14115;-75
2021/10/03 12:10:59;;;;;;;;;0.00;0.00;;;;;;;;5113410;27;8815;-76
2021/10/03 12:13:28;;;;;;;;;0.00;0.00;;;;;;;;5109980;27;9807;-76
2021/10/03 12:16:17;;;;;;;;;0.00;0.00;;;;;;;;5112062;27;10504;-75
2021/10/03 12:18:44;;;;;;;;;1.00;1.00;;;;;;;;5110104;27;8852;-76
2021/10/03 12:21:09;;;;;;;;;2.00;0.00;;;;;;;;5113910;27;9015;-76
2021/10/03 12:23:40;;;;;;;;;1.33;0.00;;;;;;;;5110655;27;9051;-76
2021/10/03 12:26:13;;;;;;;;;0.25;0.00;;;;;;;;5109181;27;11397;-76
2021/10/03 12:28:48;;;;;;;;;0.00;0.00;;;;;;;;5108736;27;9045;-76
2021/10/03 12:31:32;;;;;;;;;0.50;0.50;;;;;;;;5110439;27;14865;-76
2021/10/03 12:33:57;;;;;;;;;0.50;0.50;;;;;;;;5112236;27;13974;-76
2021/10/03 12:36:22;;;;;;;;;1.00;0.00;;;;;;;;5112226;27;16051;-76
2021/10/03 12:38:47;;;;;;;;;0.00;0.00;;;;;;;;5108172;27;15112;-75
2021/10/03 12:41:12;;;;;;;;;1.33;1.00;;;;;;;;5111706;27;12264;-75
2021/10/03 12:43:47;;;;;;;;;1.00;1.00;;;;;;;;5113949;27;11502;-76
2021/10/03 12:46:12;;;;;;;;;0.25;0.00;;;;;;;;5109651;27;18645;-76
2021/10/03 12:48:37;;;;;;;;;2.00;0.00;;;;;;;;5110672;27;13301;-76
2021/10/03 12:51:02;;;;;;;;;1.33;0.00;;;;;;;;5109699;27;15780;-77
2021/10/03 12:53:27;;;;;;;;;0.00;0.00;;;;;;;;5108665;27;12342;-77
2021/10/03 12:55:53;;;;;;;;;0.00;0.00;;;;;;;;5116906;27;11425;-77
2021/10/03 12:58:18;;;;;;;;;0.00;0.00;;;;;;;;5114095;27;22767;-77
2021/10/03 13:00:44;;;;;;;;;0.00;0.00;;;;;;;;5112349;27;16643;-76
2021/10/03 13:03:09;;;;;;;;;1.00;1.00;;;;;;;;5107708;27;11018;-76
2021/10/03 13:05:34;;;;;;;;;0.00;0.00;;;;;;;;5110105;27;11673;-76
2021/10/03 13:08:00;;;;;;;;;0.00;0.00;;;;;;;;5109341;27;11395;-77
2021/10/03 13:10:25;;;;;;;;;1.00;0.00;;;;;;;;5113326;27;18806;-76
2021/10/03 13:12:50;;;;;;;;;0.00;0.00;;;;;;;;5110441;27;10643;-76
2021/10/03 13:15:15;;;;;;;;;0.00;0.00;;;;;;;;5110121;27;17475;-76
2021/10/03 13:17:40;;;;;;;;;1.00;0.00;;;;;;;;5107345;27;11236;-76
2021/10/03 13:20:06;;;;;;;;;0.00;0.00;;;;;;;;5110304;27;11487;-77
2021/10/03 13:22:31;;;;;;;;;2.50;0.00;;;;;;;;5113844;27;14029;-76
2021/10/03 13:24:57;;;;;;;;;1.00;0.00;;;;;;;;5108994;27;8839;-76
2021/10/03 13:27:22;;;;;;;;;1.00;0.00;;;;;;;;5114364;27;14117;-77
2021/10/03 13:29:47;;;;;;;;;0.00;0.00;;;;;;;;5109919;27;10377;-77
2021/10/03 13:32:12;;;;;;;;;0.00;0.00;;;;;;;;5105877;27;15665;-76
2021/10/03 13:34:38;;;;;;;;;0.00;0.00;;;;;;;;5110206;27;8849;-76
2021/10/03 13:37:03;;;;;;;;;0.00;0.00;;;;;;;;5113421;27;11007;-77
2021/10/03 13:39:28;;;;;;;;;0.00;0.00;;;;;;;;5111508;27;9835;-76
2021/10/03 13:41:53;;;;;;;;;0.75;0.75;;;;;;;;5110511;27;11006;-76
2021/10/03 13:44:19;;;;;;;;;0.00;0.00;;;;;;;;5114536;27;9215;-76
2021/10/03 13:46:46;;;;;;;;;0.00;0.00;;;;;;;;5108756;27;8853;-77
2021/10/03 13:49:11;;;;;;;;;0.00;0.00;;;;;;;;5113523;27;9581;-76
2021/10/03 13:51:36;;;;;;;;;0.00;0.00;;;;;;;;5114347;27;17769;-75
2021/10/03 13:54:02;;;;;;;;;0.00;0.00;;;;;;;;5117925;22;8929;-92
2021/10/03 13:56:27;;;;;;;;;1.50;0.00;;;;;;;;5101884;27;10598;-92
2021/10/03 13:58:52;;;;;;;;;1.50;0.00;;;;;;;;5109562;22;8811;-77
2021/10/03 14:01:17;;;;;;;;;0.00;0.00;;;;;;;;5088033;27;16341;-77
2021/10/03 14:03:43;;;;;;;;;0.00;0.00;;;;;;;;5090966;27;13484;-76
2021/10/03 14:06:08;;;;;;;;;0.33;0.00;;;;;;;;5093318;28;11004;-77
2021/10/03 14:08:33;;;;;;;;;0.00;0.00;;;;;;;;5084968;27;12111;-76
2021/10/03 14:10:58;;;;;;;;;1.00;0.00;;;;;;;;5089016;28;8823;-77
2021/10/03 14:13:23;;;;;;;;;1.00;0.00;;;;;;;;5089499;28;17263;-77
2021/10/03 14:15:49;;;;;;;;;0.00;0.00;;;;;;;;5086589;27;17451;-78
2021/10/03 14:18:14;;;;;;;;;0.00;0.00;;;;;;;;5087802;27;19227;-77
2021/10/03 14:20:40;;;;;;;;;0.00;0.00;;;;;;;;5088397;28;14584;-76
2021/10/03 14:23:06;;;;;;;;;0.00;0.00;;;;;;;;5102026;27;9243;-76
2021/10/03 14:25:32;;;;;;;;;1.00;0.00;;;;;;;;5092947;27;12101;-76
2021/10/03 14:27:57;;;;;;;;;1.50;0.00;;;;;;;;5089388;27;17762;-76
2021/10/03 14:30:22;;;;;;;;;2.00;0.00;;;;;;;;5088751;27;14035;-77
2021/10/03 14:32:48;;;;;;;;;1.00;1.00;;;;;;;;5092209;28;9921;-77
2021/10/03 14:35:13;;;;;;;;;0.00;0.00;;;;;;;;5090184;27;9889;-77
2021/10/03 14:37:38;;;;;;;;;1.00;0.75;;;;;;;;5094743;27;10787;-76
2021/10/03 14:40:04;;;;;;;;;0.25;0.00;;;;;;;;5091961;28;10401;-77
2021/10/03 14:42:29;;;;;;;;;0.75;0.00;;;;;;;;5095243;27;13491;-77
2021/10/03 14:44:54;;;;;;;;;0.00;0.00;;;;;;;;5088370;27;8983;-77
2021/10/03 14:47:20;;;;;;;;;2.00;0.00;;;;;;;;5090977;28;13576;-76
2021/10/03 14:49:45;;;;;;;;;0.00;0.00;;;;;;;;5085348;28;11986;-76
2021/10/03 14:52:10;;;;;;;;;0.00;0.00;;;;;;;;5090792;27;11161;-76
2021/10/03 14:54:37;;;;;;;;;0.00;0.00;;;;;;;;5091929;28;9027;-76
2021/10/03 14:57:03;;;;;;;;;1.50;0.00;;;;;;;;5083530;28;9794;-75
2021/10/03 14:59:28;;;;;;;;;0.00;0.00;;;;;;;;5091639;27;15916;-75
2021/10/03 15:01:53;;;;;;;;;0.00;0.00;;;;;;;;5091836;27;8831;-75
2021/10/03 15:04:18;;;;;;;;;0.00;0.00;;;;;;;;5095307;27;11349;-76
2021/10/03 15:06:43;;;;;;;;;3.00;0.00;;;;;;;;5090284;27;12277;-76
2021/10/03 15:09:09;;;;;;;;;0.00;0.00;;;;;;;;5096245;28;17543;-76
2021/10/03 15:11:34;;;;;;;;;0.00;0.00;;;;;;;;5088483;27;16070;-75
2021/10/03 15:13:59;;;;;;;;;0.00;0.00;;;;;;;;5091692;28;9506;-76
2021/10/03 15:16:24;;;;;;;;;1.67;1.00;;;;;;;;5090530;27;9987;-76
2021/10/03 15:18:49;;;;;;;;;0.00;0.00;;;;;;;;5087467;28;11165;-76
2021/10/03 15:21:15;;;;;;;;;0.00;0.00;;;;;;;;5095360;28;14961;-75
2021/10/03 15:23:40;;;;;;;;;0.00;0.00;;;;;;;;5089460;28;10322;-76
2021/10/03 15:26:06;;;;;;;;;0.00;0.00;;;;;;;;5095034;27;9747;-76
2021/10/03 15:28:31;;;;;;;;;0.00;0.00;;;;;;;;5087835;28;10858;-75
2021/10/03 15:30:56;;;;;;;;;0.00;0.00;;;;;;;;5093081;27;12481;-76
2021/10/03 15:33:21;;;;;;;;;0.00;0.00;;;;;;;;5088476;27;9208;-75
2021/10/03 15:35:46;;;;;;;;;0.00;0.00;;;;;;;;5090936;28;14412;-76
2021/10/03 15:38:12;;;;;;;;;0.00;0.00;;;;;;;;5095298;27;11534;-76
2021/10/03 15:40:37;;;;;;;;;0.00;0.00;;;;;;;;5089651;28;10893;-75
2021/10/03 15:43:03;;;;;;;;;0.75;0.00;;;;;;;;5090515;28;9295;-76
2021/10/03 15:45:28;;;;;;;;;0.00;0.00;;;;;;;;5090072;28;8837;-75
2021/10/03 15:47:53;;;;;;;;;2.00;2.00;;;;;;;;5094348;28;11073;-76
2021/10/03 15:50:19;;;;;;;;;0.00;0.00;;;;;;;;5089710;27;9928;-77
2021/10/03 15:52:44;;;;;;;;;0.00;0.00;;;;;;;;5094840;27;9123;-76
2021/10/03 15:55:10;;;;;;;;;0.00;0.00;;;;;;;;5086899;27;10278;-76
2021/10/03 15:57:35;;;;;;;;;1.00;0.00;;;;;;;;5090055;27;9112;-77
2021/10/03 16:00:01;;;;;;;;;0.50;0.50;;;;;;;;5098256;28;11216;-77
2021/10/03 16:02:26;;;;;;;;;0.00;0.00;;;;;;;;5093086;27;10195;-77
2021/10/03 16:04:52;;;;;;;;;1.00;1.00;;;;;;;;5094047;28;8809;-77
2021/10/03 16:07:17;;;;;;;;;2.00;0.00;;;;;;;;5089806;27;16549;-76
2021/10/03 16:09:42;;;;;;;;;0.00;0.00;;;;;;;;5089968;27;14050;-76
2021/10/03 16:12:08;;;;;;;;;0.33;0.33;;;;;;;;5091051;28;13748;-77
2021/10/03 16:14:34;;;;;;;;;0.00;0.00;;;;;;;;5090513;28;16253;-77
2021/10/03 16:16:59;;;;;;;;;0.00;0.00;;;;;;;;5096139;27;8823;-76
2021/10/03 16:19:24;;;;;;;;;0.00;0.00;;;;;;;;5089898;27;9622;-77
2021/10/03 16:21:49;;;;;;;;;0.00;0.00;;;;;;;;5090639;28;9233;-78
2021/10/03 16:24:15;;;;;;;;;0.00;0.00;;;;;;;;5093385;27;9567;-76
2021/10/03 16:26:40;;;;;;;;;1.00;0.00;;;;;;;;5087319;28;18218;-77
2021/10/03 16:29:07;;;;;;;;;1.00;1.00;;;;;;;;5093958;27;8827;-77
2021/10/03 16:31:33;;;;;;;;;2.25;1.00;;;;;;;;5092159;28;9664;-76
2021/10/03 16:33:58;;;;;;;;;0.00;0.00;;;;;;;;5090540;28;11317;-76
2021/10/03 16:36:23;;;;;;;;;1.00;1.00;;;;;;;;5087977;27;10132;-76
2021/10/03 16:38:48;;;;;;;;;0.00;0.00;;;;;;;;5091830;28;10427;-76
2021/10/03 16:41:14;;;;;;;;;1.25;0.75;;;;;;;;5098584;22;8843;-92
2021/10/03 16:43:39;;;;;;;;;0.33;0.33;;;;;;;;5098782;28;8842;-91
2021/10/03 16:46:06;;;;;;;;;1.00;1.00;;;;;;;;5110868;22;9887;-76
2021/10/03 16:48:32;;;;;;;;;0.00;0.00;;;;;;;;5092897;28;17206;-76
2021/10/03 16:50:57;;;;;;;;;1.00;1.00;;;;;;;;5085866;27;11591;-76
2021/10/03 16:53:22;;;;;;;;;0.25;0.25;;;;;;;;5092992;27;9002;-76
2021/10/03 16:55:47;;;;;;;;;0.50;0.00;;;;;;;;5092140;28;10164;-77
2021/10/03 16:58:13;;;;;;;;;1.00;1.00;;;;;;;;5090163;27;18197;-77
2021/10/03 17:00:38;;;;;;;;;1.00;1.00;;;;;;;;5088912;28;9954;-77
2021/10/03 17:03:03;;;;;;;;;0.00;0.00;;;;;;;;5089291;28;14650;-77
2021/10/03 17:05:28;;;;;;;;;0.00;0.00;;;;;;;;5088480;28;19386;-77
2021/10/03 17:07:54;;;;;;;;;0.75;0.75;;;;;;;;5089577;28;9806;-77
2021/10/03 17:10:19;;;;;;;;;1.00;1.00;;;;;;;;5202166;22;10397;-76
2021/10/03 17:12:44;;;;;;;;;2.50;2.00;;;;;;;;5084176;28;15308;-76
2021/10/03 17:15:11;;;;;;;;;1.00;1.00;;;;;;;;5089701;27;8857;-76
2021/10/03 17:17:36;;;;;;;;;1.00;1.00;;;;;;;;5087695;28;14152;-76
2021/10/03 17:20:03;;;;;;;;;2.75;1.00;;;;;;;;5088230;28;8834;-76
2021/10/03 17:22:28;;;;;;;;;2.25;2.25;;;;;;;;5089886;28;11454;-77
2021/10/03 17:24:53;;;;;;;;;2.75;1.00;;;;;;;;5093802;28;10357;-76
2021/10/03 17:27:19;;;;;;;;;1.75;1.75;;;;;;;;5091667;28;11443;-76
2021/10/03 17:29:45;;;;;;;;;3.25;1.00;;;;;;;;5086548;28;8860;-76
2021/10/03 17:32:10;;;;;;;;;2.00;2.00;;;;;;;;5093297;27;9689;-76
2021/10/03 17:34:35;;;;;;;;;5.25;3.25;;;;;;;;5090515;28;8849;-76
2021/10/03 17:37:04;;;;;;;;;2.25;2.00;;;;;;;;5088150;28;10275;-76
2021/10/03 17:39:31;;;;;;;;;3.50;3.50;;;;;;;;5093563;28;9122;-76
2021/10/03 17:41:56;;;;;;;;;4.50;2.00;;;;;;;;5091744;28;8828;-77
2021/10/03 17:44:21;;;;;;;;;4.00;3.00;;;;;;;;5091451;27;11657;-77
2021/10/03 17:46:46;;;;;;;;;2.75;2.75;;;;;;;;5092049;27;8848;-77
2021/10/03 17:49:11;;;;;;;;;4.00;3.00;;;;;;;;5088234;27;14302;-76
2021/10/03 17:51:37;;;;;;;;;0.00;0.00;;;;;;;;5091564;27;9949;-76
2021/10/03 17:54:02;;;;;;;;;3.00;3.00;;;;;;;;5090134;27;16035;-75
2021/10/03 17:56:27;;;;;;;;;5.00;3.00;;;;;;;;5089636;27;17374;-76
2021/10/03 17:58:52;;;;;;;;;4.50;4.50;;;;;;;;5094696;27;11593;-76
2021/10/03 18:01:18;;;;;;;;;9.50;4.25;;;;;;;;5086022;28;9654;-75
2021/10/03 18:03:43;;;;;;;;;7.33;3.00;;;;;;;;5092230;28;10181;-75
2021/10/03 18:06:10;;;;;;;;;4.33;3.67;;;;;;;;5090769;27;11462;-76
2021/10/03 18:08:35;;;;;;;;;5.00;3.25;;;;;;;;5087689;27;10649;-75
2021/10/03 18:11:00;;;;;;;;;3.33;3.00;;;;;;;;5089269;28;8833;-75
2021/10/03 18:13:26;;;;;;;;;2.50;2.25;;;;;;;;5088465;28;10752;-75
2021/10/03 18:15:51;;;;;;;;;2.00;2.00;;;;;;;;5086786;27;11927;-75
2021/10/03 18:18:19;;;;;;;;;2.75;1.75;;;;;;;;5087038;28;10158;-75
2021/10/03 18:20:45;;;;;;;;;2.50;2.50;;;;;;;;5085690;28;14335;-75
2021/10/03 18:23:10;;;;;;;;;2.00;2.00;;;;;;;;5091650;27;10866;-76
2021/10/03 18:25:35;;;;;;;;;2.25;2.25;;;;;;;;5086456;28;10456;-75
2021/10/03 18:28:00;;;;;;;;;2.00;2.00;;;;;;;;5088880;28;18221;-76
2021/10/03 18:30:26;;;;;;;;;3.00;3.00;;;;;;;;5089585;28;13605;-76
2021/10/03 18:32:51;;;;;;;;;3.00;3.00;;;;;;;;5083054;28;8875;-75
2021/10/03 18:35:17;;;;;;;;;2.33;2.33;;;;;;;;5085227;28;8851;-76
2021/10/03 18:37:42;;;;;;;;;2.00;2.00;;;;;;;;5101199;28;10445;-76
2021/10/03 18:40:08;;;;;;;;;2.00;2.00;;;;;;;;5090835;27;10278;-76
2021/10/03 18:42:34;;;;;;;;;4.00;2.00;;;;;;;;5093306;28;10228;-75
2021/10/03 18:44:59;;;;;;;;;4.00;3.00;;;;;;;;5089644;28;8824;-76
2021/10/03 18:47:25;;;;;;;;;2.00;2.00;;;;;;;;5096804;28;9556;-75
2021/10/03 18:49:50;;;;;;;;;3.00;2.75;;;;;;;;5090218;28;10280;-75
2021/10/03 18:52:15;;;;;;;;;2.00;2.00;;;;;;;;5090554;28;18191;-75
2021/10/03 18:54:40;;;;;;;;;2.25;2.00;;;;;;;;5089439;28;13422;-75
2021/10/03 18:57:06;;;;;;;;;1.00;1.00;;;;;;;;5095588;27;9619;-76
2021/10/03 18:59:31;;;;;;;;;2.25;1.00;;;;;;;;5090980;28;11436;-75
2021/10/03 19:01:56;;;;;;;;;2.00;2.00;;;;;;;;5098302;27;8818;-75
2021/10/03 19:04:21;;;;;;;;;3.33;1.67;;;;;;;;5092443;27;8963;-76
2021/10/03 19:06:47;;;;;;;;;2.75;2.25;;;;;;;;5089283;27;10033;-75
2021/10/03 19:09:12;;;;;;;;;2.00;2.00;;;;;;;;5089981;28;16068;-75
2021/10/03 19:11:37;;;;;;;;;1.33;1.00;;;;;;;;5095820;28;20780;-76
2021/10/03 19:14:03;;;;;;;;;3.00;1.67;;;;;;;;5094939;27;10181;-75
2021/10/03 19:16:28;;;;;;;;;1.50;1.00;;;;;;;;5089531;28;14384;-75
2021/10/03 19:18:54;;;;;;;;;2.00;1.75;;;;;;;;5092846;27;13551;-75
2021/10/03 19:21:19;;;;;;;;;1.50;1.50;;;;;;;;5089837;28;17937;-75
2021/10/03 19:23:45;;;;;;;;;1.50;1.00;;;;;;;;5091319;28;12814;-76
2021/10/03 19:26:11;;;;;;;;;1.75;1.75;;;;;;;;5087552;27;8851;-78
2021/10/03 19:28:36;;;;;;;;;2.00;2.00;;;;;;;;5390401;22;8794;-92
2021/10/03 19:31:02;;;;;;;;;1.00;1.00;;;;;;;;5098903;27;9111;-90
2021/10/03 19:33:28;;;;;;;;;2.00;2.00;;;;;;;;5097079;27;8817;-91
2021/10/03 19:35:53;;;;;;;;;2.00;2.00;;;;;;;;5098802;28;9005;-92
2021/10/03 19:38:19;;;;;;;;;1.00;1.00;;;;;;;;5098992;28;8865;-91
2021/10/03 19:40:46;;;;;;;;;1.00;1.00;;;;;;;;5100986;28;8850;-92
2021/10/03 19:43:11;;;;;;;;;2.75;1.75;;;;;;;;5102638;28;8855;-90
2021/10/03 19:45:37;;;;;;;;;4.00;1.00;;;;;;;;5097090;28;8810;-90
2021/10/03 19:48:03;;;;;;;;;1.00;1.00;;;;;;;;5105339;27;8832;-91
2021/10/03 19:50:29;;;;;;;;;2.00;1.00;;;;;;;;5103370;28;8814;-93
2021/10/03 19:52:54;;;;;;;;;1.50;1.00;;;;;;;;5111228;28;8961;-94
2021/10/03 19:55:19;;;;;;;;;2.00;2.00;;;;;;;;5105819;28;9031;-92
2021/10/03 19:57:44;;;;;;;;;1.00;1.00;;;;;;;;5111322;28;8852;-92
2021/10/03 20:00:11;;;;;;;;;1.00;1.00;;;;;;;;5106542;27;9493;-89
2021/10/03 20:02:37;;;;;;;;;1.25;1.25;;;;;;;;5103492;28;29617;-91
2021/10/03 20:05:03;;;;;;;;;2.00;1.00;;;;;;;;5107646;27;9620;-93
2021/10/03 20:07:28;;;;;;;;;1.00;0.00;;;;;;;;5107097;27;8774;-93
2021/10/03 20:12:55;;;;;;;;;;;;;;;;;;1759429;28;122611247;-92
2021/10/03 20:19:06;;;;;;;;;0.00;0.00;;;;;;;;2;233053401;233053401;-92
2021/10/03 20:25:49;;;;;;;;;2.00;2.00;;;;;;;;3;126070956;134661470;-94
2021/10/03 20:32:45;;;;;;;;;;;;;;;;;;2;177460584;177460584;-94
2021/10/03 20:41:08;;;;;;;;;0.00;0.00;;;;;;;;2;228459273;228459273;-92
2021/10/03 20:45:59;;;;;;;;;1.00;1.00;;;;;;;;2;147012214;147012214;-78
2021/10/03 20:48:24;;;;;;;;;2.00;2.00;;;;;;;;1983712;27;88360807;-77
2021/10/03 20:50:50;;;;;;;;;1.00;1.00;;;;;;;;5108165;27;36571;-77
2021/10/03 20:53:16;;;;;;;;;1.00;1.00;;;;;;;;5096884;27;45368;-77
2021/10/03 20:55:41;;;;;;;;;2.75;2.00;;;;;;;;5098877;27;45667;-75
2021/10/03 20:58:07;;;;;;;;;2.00;2.00;;;;;;;;5082343;27;45597;-76
2021/10/03 21:00:32;;;;;;;;;3.25;2.00;;;;;;;;5080064;27;46606;-76
2021/10/03 21:02:57;;;;;;;;;4.50;3.00;;;;;;;;5098903;27;45776;-77
2021/10/03 21:05:22;;;;;;;;;2.50;2.50;;;;;;;;5072537;27;45799;-76
2021/10/03 21:09:32;;;;;;;;;;;;;;;;;;2994205;27;128061313;-76
2021/10/03 21:11:58;;;;;;;;;1.00;1.00;;;;;;;;5080752;27;44822;-75
2021/10/03 21:14:23;;;;;;;;;2.00;0.75;;;;;;;;4927442;27;4154670;-76
2021/10/03 21:16:49;;;;;;;;;1.00;1.00;;;;;;;;5053184;27;694311;-76
2021/10/03 21:19:14;;;;;;;;;1.25;1.25;;;;;;;;5070715;27;45689;-77
2021/10/03 21:21:39;;;;;;;;;3.00;1.00;;;;;;;;5074934;27;45668;-76
2021/10/03 21:24:05;;;;;;;;;1.67;0.33;;;;;;;;5073597;27;45712;-76
2021/10/03 21:26:30;;;;;;;;;1.00;1.00;;;;;;;;5074172;27;46912;-77
2021/10/03 21:28:55;;;;;;;;;1.00;1.00;;;;;;;;5073523;27;45792;-76
2021/10/03 21:31:21;;;;;;;;;2.00;1.00;;;;;;;;5074432;27;45703;-77
2021/10/03 21:33:46;;;;;;;;;1.33;1.33;;;;;;;;5073663;27;45779;-76
2021/10/03 21:36:11;;;;;;;;;1.00;1.00;;;;;;;;5071386;27;45597;-77
2021/10/03 21:38:36;;;;;;;;;1.00;0.00;;;;;;;;5075148;27;45585;-76
2021/10/03 21:41:02;;;;;;;;;1.00;1.00;;;;;;;;5213290;22;45559;-77
2021/10/03 21:43:27;;;;;;;;;1.00;1.00;;;;;;;;5057603;28;45596;-77
2021/10/03 21:45:52;;;;;;;;;0.00;0.00;;;;;;;;5055838;27;45678;-76
2021/10/03 21:48:17;;;;;;;;;1.00;1.00;;;;;;;;5053288;28;45893;-76
2021/10/03 21:50:42;;;;;;;;;2.00;0.67;;;;;;;;5051931;28;46093;-76
2021/10/03 21:53:08;;;;;;;;;2.00;1.00;;;;;;;;5057243;28;46012;-76
2021/10/03 21:55:36;;;;;;;;;2.75;0.75;;;;;;;;5053367;28;45680;-77
2021/10/03 21:58:01;;;;;;;;;1.25;1.00;;;;;;;;5051861;28;45693;-76
2021/10/03 22:00:42;;;;;;;;;1.00;1.00;;;;;;;;5055008;27;45634;-76
2021/10/03 22:03:07;;;;;;;;;1.00;1.00;;;;;;;;5052340;27;45598;-76
2021/10/03 22:05:32;;;;;;;;;1.33;1.00;;;;;;;;5051239;28;47711;-76
2021/10/03 22:07:57;;;;;;;;;1.00;1.00;;;;;;;;5056270;28;45703;-76
2021/10/03 22:10:23;;;;;;;;;1.00;1.00;;;;;;;;5051447;27;45589;-76
2021/10/03 22:12:48;;;;;;;;;1.00;1.00;;;;;;;;3421517;28;46773115;-92
2021/10/03 22:15:13;;;;;;;;;2.00;1.00;;;;;;;;5041063;27;892968;-92
2021/10/03 22:17:39;;;;;;;;;1.25;1.25;;;;;;;;5072224;27;45549;-93
2021/10/03 22:20:05;;;;;;;;;3.50;1.00;;;;;;;;5066448;27;45542;-92
2021/10/03 22:22:30;;;;;;;;;2.50;1.00;;;;;;;;5062571;28;45609;-92
2021/10/03 22:24:55;;;;;;;;;1.00;1.00;;;;;;;;5068706;28;45636;-92
2021/10/03 22:27:21;;;;;;;;;1.25;1.00;;;;;;;;5068395;27;45589;-92
2021/10/03 22:29:46;;;;;;;;;2.00;0.00;;;;;;;;5062478;27;45445;-92
2021/10/03 22:32:11;;;;;;;;;1.00;1.00;;;;;;;;5060584;28;45736;-92
2021/10/03 22:34:37;;;;;;;;;0.25;0.25;;;;;;;;5066881;28;45548;-93
2021/10/03 22:37:02;;;;;;;;;1.50;1.00;;;;;;;;5068432;27;45485;-92
2021/10/03 22:39:27;;;;;;;;;1.00;1.00;;;;;;;;5066354;28;45483;-92
2021/10/03 22:42:00;;;;;;;;;3.00;1.00;;;;;;;;5064649;28;47071;-92
2021/10/03 22:44:25;;;;;;;;;0.00;0.00;;;;;;;;5064580;28;46077;-90
2021/10/03 22:46:50;;;;;;;;;0.00;0.00;;;;;;;;5063590;28;45594;-92
2021/10/03 22:49:18;;;;;;;;;0.75;0.75;;;;;;;;5069379;27;45523;-92
2021/10/03 22:51:43;;;;;;;;;0.75;0.50;;;;;;;;5072920;28;46547;-93
2021/10/03 22:54:09;;;;;;;;;0.00;0.00;;;;;;;;5068425;27;45637;-92
2021/10/03 22:56:34;;;;;;;;;1.25;1.25;;;;;;;;5066891;28;45450;-92
2021/10/03 22:59:08;;;;;;;;;1.33;1.00;;;;;;;;5065006;28;46162;-93
2021/10/03 23:01:34;;;;;;;;;1.00;0.75;;;;;;;;5064449;28;45688;-93
2021/10/03 23:03:59;;;;;;;;;3.50;0.50;;;;;;;;5059244;27;45633;-92
2021/10/03 23:06:25;;;;;;;;;1.00;1.00;;;;;;;;5066416;28;45549;-91
2021/10/03 23:08:52;;;;;;;;;1.00;1.00;;;;;;;;5063550;28;45478;-93
2021/10/03 23:11:18;;;;;;;;;1.00;1.00;;;;;;;;5068315;27;47415;-93
2021/10/03 23:13:43;;;;;;;;;1.25;1.25;;;;;;;;5062553;28;45442;-92
2021/10/03 23:16:11;;;;;;;;;1.75;1.75;;;;;;;;5065537;27;45718;-92
2021/10/03 23:18:39;;;;;;;;;1.00;1.00;;;;;;;;5065372;28;45735;-93
2021/10/03 23:21:07;;;;;;;;;1.75;1.75;;;;;;;;5066731;27;48192;-93
2021/10/03 23:23:33;;;;;;;;;0.25;0.25;;;;;;;;5072369;27;45021;-92
2021/10/03 23:26:05;;;;;;;;;2.50;1.00;;;;;;;;5074662;28;45544;-93
2021/10/03 23:28:33;;;;;;;;;1.00;1.00;;;;;;;;5073340;27;45717;-92
2021/10/03 23:30:58;;;;;;;;;2.00;1.00;;;;;;;;5071201;28;47272;-93
2021/10/03 23:33:24;;;;;;;;;1.25;1.25;;;;;;;;5070248;27;45853;-93
2021/10/03 23:35:54;;;;;;;;;2.00;2.00;;;;;;;;5071217;27;46041;-93
2021/10/03 23:38:19;;;;;;;;;1.50;1.50;;;;;;;;5071395;28;45584;-93
2021/10/03 23:40:44;;;;;;;;;2.00;2.00;;;;;;;;5071831;28;47074;-92